Time;durP1;ratioP1;P1;durP2;ratioP2;P2;SDS_P1;SDS_P2;PMS_P1;PMS_P2;Temp;Humidity;BMP_temperature;BMP_pressure;BME280_temperature;BME280_humidity;BME280_pressure;Samples;Min_cycle;Max_cycle;Signal;HPM_P1;HPM_P2
2022/01/10 00:00:37;;;;;;;5.57;4.50;;;6.20;42.70;;;;;;10439875;28;20233;-75
2022/01/10 00:05:40;;;;;;;4.20;3.80;;;6.20;42.80;;;;;;10422458;28;20260;-75
2022/01/10 00:10:45;;;;;;;5.63;4.90;;;6.20;42.60;;;;;;10423683;28;20229;-74
2022/01/10 00:15:50;;;;;;;5.27;4.47;;;6.20;42.60;;;;;;10432625;28;20259;-75
2022/01/10 00:20:53;;;;;;;5.73;4.60;;;6.20;42.60;;;;;;10430012;28;20225;-74
2022/01/10 00:25:56;;;;;;;4.57;4.07;;;6.20;42.60;;;;;;10431412;28;20224;-75
2022/01/10 00:31:01;;;;;;;5.03;3.87;;;6.10;42.60;;;;;;10438206;28;20726;-74
2022/01/10 00:36:04;;;;;;;4.00;3.60;;;6.10;42.80;;;;;;10432353;28;20235;-75
2022/01/10 00:41:09;;;;;;;4.63;3.87;;;6.00;42.70;;;;;;10436423;28;20599;-74
2022/01/10 00:46:14;;;;;;;3.73;3.40;;;6.00;42.90;;;;;;10428302;28;20231;-74
2022/01/10 00:51:17;;;;;;;5.50;3.60;;;6.00;43.20;;;;;;10435211;28;20221;-74
2022/01/10 00:56:21;;;;;;;4.77;4.00;;;6.00;43.10;;;;;;10429456;28;20229;-74
2022/01/10 01:01:26;;;;;;;4.37;3.50;;;6.00;43.20;;;;;;10439099;28;20598;-74
2022/01/10 01:06:30;;;;;;;3.23;2.97;;;6.10;43.90;;;;;;10431462;28;20724;-74
2022/01/10 01:17:09;;;;;;;3.10;2.77;;;6.00;43.20;;;;;;10422983;28;20236;-74
2022/01/10 01:27:33;;;;;;;3.33;2.87;;;6.00;43.30;;;;;;10432560;28;20598;-74
2022/01/10 01:32:38;;;;;;;2.97;2.30;;;6.10;43.50;;;;;;10430157;28;20226;-74
2022/01/10 01:37:41;;;;;;;4.73;3.70;;;6.10;43.60;;;;;;10419872;28;20887;-74
2022/01/10 01:42:44;;;;;;;4.93;4.03;;;6.10;43.40;;;;;;10431040;28;20232;-74
2022/01/10 01:47:50;;;;;;;4.97;3.97;;;6.20;43.40;;;;;;10438891;28;20217;-74
2022/01/10 01:52:54;;;;;;;4.80;4.33;;;6.20;43.60;;;;;;10435962;28;20229;-74
2022/01/10 01:57:57;;;;;;;4.37;3.97;;;6.20;43.40;;;;;;10440978;28;20235;-74
2022/01/10 02:03:02;;;;;;;4.97;4.30;;;6.20;43.40;;;;;;10439584;28;20236;-74
2022/01/10 02:08:06;;;;;;;4.10;3.70;;;6.30;43.50;;;;;;10423640;28;20229;-74
2022/01/10 02:13:10;;;;;;;4.43;4.03;;;6.30;43.40;;;;;;10441522;28;20229;-74
2022/01/10 02:18:16;;;;;;;4.73;4.23;;;6.30;43.40;;;;;;10435545;28;20434;-74
2022/01/10 02:23:21;;;;;;;4.03;3.40;;;6.30;43.50;;;;;;10431589;28;20232;-74
2022/01/10 02:28:24;;;;;;;4.93;4.53;;;6.40;43.40;;;;;;10422592;28;20225;-74
2022/01/10 02:33:30;;;;;;;5.03;4.63;;;6.40;43.20;;;;;;10432429;28;20235;-74
2022/01/10 02:38:35;;;;;;;4.47;4.07;;;6.30;43.30;;;;;;10442979;28;20243;-74
2022/01/10 02:43:39;;;;;;;4.43;4.03;;;6.30;43.10;;;;;;10438033;28;20252;-74
2022/01/10 02:48:42;;;;;;;5.07;4.53;;;6.30;43.20;;;;;;10430796;28;20231;-74
2022/01/10 02:53:47;;;;;;;5.57;5.07;;;6.20;43.20;;;;;;10427759;28;20722;-74
2022/01/10 02:58:50;;;;;;;4.70;4.30;;;6.20;43.50;;;;;;10436569;28;20233;-74
2022/01/10 03:03:53;;;;;;;5.30;4.80;;;6.20;43.40;;;;;;10426292;28;20230;-74
2022/01/10 03:09:04;;;;;;;5.23;4.73;;;6.20;43.40;;;;;;10427266;28;20700;-74
2022/01/10 03:14:07;;;;;;;5.33;4.87;;;6.20;43.70;;;;;;10442667;28;20233;-74
2022/01/10 03:19:11;;;;;;;6.00;4.93;;;6.20;43.50;;;;;;10431142;28;20229;-74
2022/01/10 03:24:15;;;;;;;6.03;4.80;;;6.20;43.60;;;;;;10438103;28;20232;-74
2022/01/10 03:29:19;;;;;;;5.33;4.93;;;6.20;43.70;;;;;;10443842;28;20237;-74
2022/01/10 03:34:22;;;;;;;6.27;5.30;;;6.20;43.50;;;;;;10442154;28;20251;-73
2022/01/10 03:39:26;;;;;;;4.93;4.50;;;6.20;43.60;;;;;;10448102;28;20239;-74
2022/01/10 03:44:30;;;;;;;5.07;4.67;;;6.20;43.70;;;;;;10434439;28;20248;-73
2022/01/10 03:49:33;;;;;;;5.30;4.80;;;6.30;43.50;;;;;;10425378;28;20247;-74
2022/01/10 03:54:37;;;;;;;5.63;5.13;;;6.30;43.40;;;;;;10427862;28;20233;-74
2022/01/10 03:59:41;;;;;;;5.80;5.20;;;6.30;43.30;;;;;;10445398;28;20324;-73
2022/01/10 04:04:44;;;;;;;6.07;5.50;;;6.20;43.20;;;;;;10433228;28;20239;-74
2022/01/10 04:09:49;;;;;;;5.27;4.87;;;6.20;43.30;;;;;;10431580;28;20644;-73
2022/01/10 04:14:52;;;;;;;5.43;4.93;;;6.10;43.60;;;;;;10424857;28;20225;-73
2022/01/10 04:19:57;;;;;;;4.70;4.30;;;6.10;43.60;;;;;;10407303;28;20231;-73
2022/01/10 04:25:01;;;;;;;6.17;5.67;;;6.20;43.70;;;;;;10439516;28;20230;-73
2022/01/10 04:30:05;;;;;;;6.07;5.50;;;6.20;43.60;;;;;;10429906;28;20239;-74
2022/01/10 04:35:09;;;;;;;6.00;5.40;;;6.10;43.30;;;;;;10431845;28;20739;-74
2022/01/10 04:40:15;;;;;;;6.50;5.90;;;6.10;43.60;;;;;;10437151;28;20232;-73
2022/01/10 04:45:18;;;;;;;7.03;6.33;;;6.00;43.60;;;;;;10424991;28;20239;-74
2022/01/10 04:50:46;;;;;;;7.20;6.50;;;6.00;43.50;;;;;;10429274;28;20308;-73
2022/01/10 04:55:51;;;;;;;6.77;6.07;;;6.10;43.60;;;;;;10422971;28;20237;-73
2022/01/10 05:00:55;;;;;;;5.97;5.47;;;6.10;43.60;;;;;;10416860;28;20701;-73
2022/01/10 05:05:59;;;;;;;6.67;6.07;;;6.10;43.60;;;;;;10412444;28;20224;-73
2022/01/10 05:11:04;;;;;;;6.63;6.03;;;6.10;43.70;;;;;;10422209;28;20229;-73
2022/01/10 05:16:07;;;;;;;6.40;5.80;;;6.20;43.70;;;;;;10419957;28;20232;-73
2022/01/10 05:21:12;;;;;;;6.13;5.63;;;6.20;43.60;;;;;;10419170;28;20237;-73
2022/01/10 05:26:16;;;;;;;7.40;6.43;;;6.10;43.50;;;;;;10438339;28;20630;-73
2022/01/10 05:31:19;;;;;;;7.23;6.50;;;6.20;43.70;;;;;;10420724;28;20222;-73
2022/01/10 05:36:23;;;;;;;7.57;6.87;;;6.20;43.70;;;;;;10429105;28;20240;-73
2022/01/10 05:41:28;;;;;;;6.63;6.00;;;6.20;43.70;;;;;;10433827;28;20243;-73
2022/01/10 05:46:31;;;;;;;8.17;7.37;;;6.20;43.70;;;;;;10444822;28;20279;-73
2022/01/10 05:51:36;;;;;;;8.50;7.70;;;6.20;43.70;;;;;;10439784;28;20229;-73
2022/01/10 05:56:40;;;;;;;8.10;7.30;;;6.20;43.70;;;;;;10427596;28;20339;-73
2022/01/10 06:01:44;;;;;;;8.83;8.03;;;6.20;43.70;;;;;;10440959;28;20708;-73
2022/01/10 06:06:47;;;;;;;8.93;6.90;;;6.10;43.60;;;;;;10430532;28;20785;-73
2022/01/10 06:11:52;;;;;;;8.57;7.77;;;6.10;44.20;;;;;;10442641;28;20661;-73
2022/01/10 06:16:55;;;;;;;8.53;7.73;;;6.10;44.20;;;;;;10437643;28;20229;-74
2022/01/10 06:21:58;;;;;;;9.57;8.53;;;6.20;43.80;;;;;;10427318;28;20736;-75
2022/01/10 06:27:03;;;;;;;9.73;8.83;;;6.20;43.70;;;;;;10436259;28;20704;-75
2022/01/10 06:32:07;;;;;;;8.93;8.03;;;6.20;43.70;;;;;;10428794;28;20233;-74
2022/01/10 06:37:10;;;;;;;8.87;8.07;;;6.10;43.60;;;;;;10420435;28;20229;-75
2022/01/10 06:42:15;;;;;;;8.37;7.30;;;6.10;43.60;;;;;;10429054;28;20607;-75
2022/01/10 06:47:18;;;;;;;9.50;7.40;;;6.00;43.50;;;;;;10438227;28;20217;-74
2022/01/10 06:52:21;;;;;;;8.60;7.40;;;6.00;43.50;;;;;;10447689;28;20237;-74
2022/01/10 06:57:26;;;;;;;7.80;6.93;;;6.00;43.70;;;;;;10442134;28;20236;-75
2022/01/10 07:02:29;;;;;;;7.27;6.57;;;6.00;43.90;;;;;;10438044;28;20229;-74
2022/01/10 07:07:32;;;;;;;7.40;6.70;;;6.10;43.90;;;;;;10437728;28;20257;-75
2022/01/10 07:12:37;;;;;;;7.73;6.87;;;6.10;43.90;;;;;;10426931;28;20233;-74
2022/01/10 07:17:40;;;;;;;8.73;7.83;;;6.10;44.10;;;;;;10444436;28;20241;-75
2022/01/10 07:22:43;;;;;;;8.87;8.00;;;6.10;43.90;;;;;;10443641;28;20229;-74
2022/01/10 07:27:47;;;;;;;8.20;7.50;;;6.20;43.70;;;;;;10442495;28;20225;-74
2022/01/10 07:32:51;;;;;;;8.57;7.77;;;6.20;43.90;;;;;;10433622;28;20627;-74
2022/01/10 07:37:54;;;;;;;10.63;7.50;;;6.20;43.70;;;;;;10434538;28;20229;-74
2022/01/10 07:42:58;;;;;;;7.30;6.50;;;6.20;43.70;;;;;;10425106;28;20244;-74
2022/01/10 07:48:02;;;;;;;7.60;6.87;;;6.20;43.70;;;;;;10415613;28;20228;-74
2022/01/10 07:53:05;;;;;;;8.20;7.40;;;6.20;43.70;;;;;;10436124;28;20573;-74
2022/01/10 07:58:10;;;;;;;8.73;7.70;;;6.20;43.70;;;;;;10430279;28;20596;-74
2022/01/10 08:03:13;;;;;;;7.43;6.57;;;6.20;43.70;;;;;;10430405;28;20231;-75
2022/01/10 08:08:16;;;;;;;7.70;6.10;;;6.20;43.70;;;;;;10435435;28;20592;-74
2022/01/10 08:13:21;;;;;;;7.43;6.73;;;6.10;43.60;;;;;;10439637;28;20221;-74
2022/01/10 08:18:24;;;;;;;7.37;6.47;;;6.10;43.60;;;;;;10428538;28;20253;-74
2022/01/10 08:23:27;;;;;;;8.30;7.20;;;6.10;43.60;;;;;;10419052;28;20243;-74
2022/01/10 08:28:32;;;;;;;7.93;7.13;;;6.10;43.60;;;;;;10418985;28;20312;-73
2022/01/10 08:33:35;;;;;;;8.70;7.27;;;6.10;43.90;;;;;;10406743;28;20226;-73
2022/01/10 08:38:38;;;;;;;10.30;7.57;;;6.10;43.90;;;;;;10414545;28;20236;-73
2022/01/10 08:43:42;;;;;;;8.33;7.43;;;6.10;43.90;;;;;;10448163;28;20602;-74
2022/01/10 08:48:46;;;;;;;9.30;8.03;;;6.20;44.10;;;;;;10431246;28;20689;-74
2022/01/10 08:53:49;;;;;;;8.83;7.93;;;6.20;44.10;;;;;;10440067;28;20253;-75
2022/01/10 08:58:53;;;;;;;8.93;8.03;;;6.20;44.00;;;;;;10420946;28;20233;-76
2022/01/10 09:03:57;;;;;;;10.50;7.93;;;6.30;44.20;;;;;;10415200;28;20228;-75
2022/01/10 09:09:00;;;;;;;10.27;7.80;;;6.30;44.00;;;;;;10434565;28;20232;-75
2022/01/10 09:14:05;;;;;;;8.87;7.97;;;6.30;44.00;;;;;;10424430;28;20224;-76
2022/01/10 09:19:08;;;;;;;7.87;7.07;;;6.40;43.90;;;;;;10426571;28;20231;-75
2022/01/10 09:24:11;;;;;;;8.63;7.83;;;6.40;43.90;;;;;;10424647;28;20229;-75
2022/01/10 09:29:16;;;;;;;8.90;7.67;;;6.40;43.90;;;;;;10435162;28;20236;-75
2022/01/10 09:34:19;;;;;;;9.60;7.27;;;6.40;43.90;;;;;;10443856;28;20235;-77
2022/01/10 09:39:25;;;;;;;9.03;7.47;;;6.40;43.90;;;;;;10447932;28;20258;-77
2022/01/10 09:44:30;;;;;;;7.77;6.87;;;6.40;44.10;;;;;;10434218;28;20229;-77
2022/01/10 09:49:35;;;;;;;8.80;7.77;;;6.40;43.90;;;;;;10436448;28;20228;-77
2022/01/10 09:54:38;;;;;;;9.63;7.80;;;6.40;44.00;;;;;;10424466;28;20225;-77
2022/01/10 09:59:43;;;;;;;13.57;9.40;;;6.40;43.90;;;;;;10423341;28;20232;-77
2022/01/10 10:04:48;;;;;;;10.13;8.67;;;6.40;43.90;;;;;;10427717;28;20221;-77
2022/01/10 10:09:51;;;;;;;9.50;7.80;;;6.10;43.90;;;;;;10424243;28;20228;-77
2022/01/10 10:14:55;;;;;;;9.53;7.67;;;6.30;44.90;;;;;;10436916;28;20221;-78
2022/01/10 10:19:59;;;;;;;8.87;7.80;;;6.30;44.40;;;;;;10435511;28;20634;-78
2022/01/10 10:25:06;;;;;;;9.63;7.27;;;6.40;44.30;;;;;;10437437;28;20217;-79
2022/01/10 10:30:14;;;;;;;8.67;7.70;;;6.40;44.60;;;;;;10433685;28;20229;-78
2022/01/10 10:35:19;;;;;;;8.27;7.47;;;6.50;44.70;;;;;;10432334;28;20248;-79
2022/01/10 10:40:22;;;;;;;8.70;7.87;;;6.60;44.40;;;;;;10434544;28;20402;-76
2022/01/10 10:45:28;;;;;;;8.00;7.23;;;6.60;44.20;;;;;;10427691;28;20227;-77
2022/01/10 10:50:34;;;;;;;9.40;7.80;;;6.70;44.40;;;;;;10430783;28;20221;-77
2022/01/10 10:55:39;;;;;;;9.17;8.27;;;6.70;44.10;;;;;;10428202;28;20225;-77
2022/01/10 11:00:44;;;;;;;8.80;7.90;;;6.80;44.20;;;;;;10432377;28;20233;-77
2022/01/10 11:05:48;;;;;;;10.43;8.70;;;6.80;44.20;;;;;;10423951;28;20635;-78
2022/01/10 11:10:51;;;;;;;9.83;8.80;;;6.80;44.20;;;;;;10426802;28;20316;-77
2022/01/10 11:15:57;;;;;;;9.03;8.13;;;6.80;44.20;;;;;;10433592;28;20225;-78
2022/01/10 11:21:02;;;;;;;8.23;7.13;;;6.80;44.30;;;;;;10428432;28;20233;-78
2022/01/10 11:26:09;;;;;;;9.90;7.80;;;6.80;44.20;;;;;;10427705;28;20237;-80
2022/01/10 11:31:19;;;;;;;9.07;8.13;;;6.90;44.30;;;;;;10430571;28;20289;-77
2022/01/10 11:36:25;;;;;;;9.03;7.63;;;6.90;44.30;;;;;;10422940;28;20648;-77
2022/01/10 11:41:30;;;;;;;8.20;7.40;;;7.00;44.40;;;;;;10414398;28;20230;-77
2022/01/10 11:46:39;;;;;;;8.70;7.80;;;7.10;44.80;;;;;;10415714;28;20982;-77
2022/01/10 11:51:45;;;;;;;9.13;7.37;;;7.10;44.40;;;;;;10429727;28;20221;-76
2022/01/10 11:56:51;;;;;;;8.30;7.50;;;7.20;44.50;;;;;;10419569;28;20228;-77
2022/01/10 12:01:59;;;;;;;8.73;7.77;;;7.20;44.40;;;;;;10409489;28;20236;-77
2022/01/10 12:07:05;;;;;;;9.63;7.60;;;7.30;44.40;;;;;;10431244;28;20764;-77
2022/01/10 12:12:10;;;;;;;8.70;7.63;;;7.30;44.20;;;;;;10401125;28;20252;-77
2022/01/10 12:17:16;;;;;;;8.27;6.83;;;7.40;44.10;;;;;;10424884;28;20233;-77
2022/01/10 12:22:20;;;;;;;7.50;6.70;;;7.40;44.30;;;;;;10415973;28;20221;-78
2022/01/10 12:27:23;;;;;;;7.40;6.00;;;7.40;44.10;;;;;;10432153;28;20231;-79
2022/01/10 12:32:32;;;;;;;14.17;12.47;;;7.50;44.00;;;;;;10437373;28;20259;-79
2022/01/10 12:37:36;;;;;;;8.13;7.33;;;7.50;44.10;;;;;;10439531;28;20222;-78
2022/01/10 12:42:39;;;;;;;8.13;7.23;;;7.60;43.90;;;;;;10429054;28;20587;-77
2022/01/10 12:47:46;;;;;;;8.47;7.17;;;7.60;43.70;;;;;;10429471;28;20232;-81
2022/01/10 12:52:50;;;;;;;7.90;7.10;;;7.70;43.50;;;;;;10431139;28;20880;-78
2022/01/10 12:57:53;;;;;;;8.57;7.50;;;7.70;43.60;;;;;;10434180;28;20279;-77
2022/01/10 13:03:00;;;;;;;8.20;7.40;;;7.70;43.70;;;;;;10432387;28;20232;-80
2022/01/10 13:08:04;;;;;;;8.27;6.93;;;7.60;43.50;;;;;;10428020;28;20225;-78
2022/01/10 13:13:11;;;;;;;8.53;6.60;;;7.60;43.50;;;;;;10434005;28;20233;-79
2022/01/10 13:18:17;;;;;;;7.00;6.30;;;7.60;43.30;;;;;;10436164;28;20305;-80
2022/01/10 13:23:27;;;;;;;10.33;8.37;;;7.60;43.40;;;;;;10433530;28;20221;-79
2022/01/10 13:28:45;;;;;;;8.07;6.60;;;7.50;43.00;;;;;;10425713;28;20231;-79
2022/01/10 13:33:49;;;;;;;6.97;6.23;;;7.50;43.10;;;;;;10427741;28;20232;-76
2022/01/10 13:38:52;;;;;;;7.90;6.43;;;7.40;43.00;;;;;;10433554;28;20224;-78
2022/01/10 13:44:00;;;;;;;6.53;5.97;;;7.30;43.20;;;;;;10435704;28;20234;-81
2022/01/10 13:49:06;;;;;;;7.67;6.37;;;7.30;42.60;;;;;;10437145;28;20289;-80
2022/01/10 13:54:09;;;;;;;7.00;5.90;;;7.30;43.00;;;;;;10436275;28;20236;-76
2022/01/10 13:59:18;;;;;;;7.27;5.67;;;7.30;43.20;;;;;;10440813;28;20287;-79
2022/01/10 14:04:27;;;;;;;6.27;5.67;;;7.30;43.20;;;;;;10443976;28;20231;-80
2022/01/10 14:09:33;;;;;;;6.03;5.43;;;7.30;43.30;;;;;;10439044;28;20221;-77
2022/01/10 14:14:36;;;;;;;6.37;5.73;;;7.30;43.00;;;;;;10442340;28;20233;-76
2022/01/10 14:19:42;;;;;;;6.93;6.20;;;7.20;42.90;;;;;;10426970;28;20229;-76
2022/01/10 14:24:45;;;;;;;8.37;5.97;;;7.20;42.80;;;;;;10435139;28;20232;-75
2022/01/10 14:29:48;;;;;;;6.90;6.17;;;7.20;43.00;;;;;;10431101;28;20224;-76
2022/01/10 14:34:53;;;;;;;7.47;6.43;;;7.10;43.00;;;;;;10432382;28;20706;-78
2022/01/10 14:39:56;;;;;;;6.27;5.60;;;7.10;43.00;;;;;;10433584;28;20608;-77
2022/01/10 14:45:05;;;;;;;6.30;5.40;;;7.20;43.30;;;;;;10423817;28;20428;-77
2022/01/10 14:50:12;;;;;;;5.27;4.60;;;7.20;43.30;;;;;;10424744;28;20689;-77
2022/01/10 14:55:16;;;;;;;4.67;4.27;;;7.30;43.20;;;;;;10430643;28;20316;-77
2022/01/10 15:00:20;;;;;;;4.43;3.87;;;7.30;43.00;;;;;;10425156;28;20241;-76
2022/01/10 15:05:24;;;;;;;5.43;4.43;;;7.40;43.10;;;;;;10429923;28;20292;-77
2022/01/10 15:10:28;;;;;;;4.33;3.90;;;7.40;42.90;;;;;;10431039;28;20262;-75
2022/01/10 15:15:31;;;;;;;4.30;3.90;;;7.40;43.30;;;;;;10434854;28;20324;-76
2022/01/10 15:20:36;;;;;;;4.80;3.73;;;7.50;43.10;;;;;;10430696;28;20243;-78
2022/01/10 15:25:39;;;;;;;4.93;3.30;;;7.50;42.70;;;;;;10431843;28;20220;-78
2022/01/10 15:30:42;;;;;;;4.23;3.73;;;7.50;42.60;;;;;;10431721;28;20225;-79
2022/01/10 15:35:50;;;;;;;3.83;3.53;;;7.50;42.50;;;;;;10435394;28;20261;-80
2022/01/10 15:40:53;;;;;;;4.40;3.63;;;7.50;42.50;;;;;;10426023;28;20225;-78
2022/01/10 15:45:57;;;;;;;4.17;3.57;;;7.50;42.70;;;;;;10433279;28;20221;-78
2022/01/10 15:51:15;;;;;;;5.63;3.50;;;7.50;43.40;;;;;;10430198;28;20257;-78
2022/01/10 15:56:18;;;;;;;4.23;3.73;;;7.50;42.60;;;;;;10426772;28;20267;-78
2022/01/10 16:01:22;;;;;;;5.63;3.73;;;7.50;42.60;;;;;;10433352;28;21289;-78
2022/01/10 16:06:29;;;;;;;3.90;3.60;;;7.50;42.40;;;;;;10431231;28;20240;-78
2022/01/10 16:11:34;;;;;;;4.80;4.10;;;7.50;42.30;;;;;;10427552;28;20603;-77
2022/01/10 16:16:37;;;;;;;4.93;4.40;;;7.40;42.30;;;;;;10428845;28;20221;-77
2022/01/10 16:21:42;;;;;;;5.27;4.77;;;7.40;42.10;;;;;;10424820;28;20234;-77
2022/01/10 16:26:45;;;;;;;5.77;5.17;;;7.40;42.00;;;;;;10423091;28;20255;-77
2022/01/10 16:31:49;;;;;;;5.43;4.93;;;7.30;42.10;;;;;;10422140;28;20754;-77
2022/01/10 16:36:54;;;;;;;6.57;4.80;;;7.20;42.10;;;;;;10429528;28;20217;-79
2022/01/10 16:41:58;;;;;;;5.70;4.57;;;7.20;42.00;;;;;;10428048;28;20233;-79
2022/01/10 16:47:01;;;;;;;5.20;4.70;;;7.10;42.00;;;;;;10432103;28;20332;-79
2022/01/10 16:52:06;;;;;;;5.40;4.90;;;7.10;42.00;;;;;;10431165;28;20245;-79
2022/01/10 16:57:11;;;;;;;7.13;5.30;;;7.00;41.90;;;;;;10428836;28;20229;-78
2022/01/10 17:02:14;;;;;;;6.97;5.53;;;7.00;42.00;;;;;;10429780;28;20232;-78
2022/01/10 17:07:19;;;;;;;6.77;5.97;;;6.80;42.10;;;;;;10427020;28;20222;-75
2022/01/10 17:12:24;;;;;;;7.00;6.37;;;6.80;42.10;;;;;;10426695;28;20244;-76
2022/01/10 17:17:27;;;;;;;7.40;5.60;;;6.70;42.40;;;;;;10426125;28;20246;-77
2022/01/10 17:22:31;;;;;;;7.57;5.60;;;6.70;42.40;;;;;;10431250;28;20240;-77
2022/01/10 17:27:35;;;;;;;7.47;5.53;;;6.70;42.40;;;;;;10421999;28;20235;-76
2022/01/10 17:32:38;;;;;;;6.57;5.60;;;6.70;42.30;;;;;;10428738;28;20613;-77
2022/01/10 17:37:42;;;;;;;6.83;6.20;;;6.70;42.40;;;;;;10421512;28;20231;-76
2022/01/10 17:42:47;;;;;;;7.60;6.03;;;6.70;42.30;;;;;;10425893;28;20366;-76
2022/01/10 17:47:51;;;;;;;5.97;5.37;;;6.60;42.30;;;;;;10425390;28;20309;-77
2022/01/10 17:52:55;;;;;;;6.73;6.00;;;6.60;42.60;;;;;;10428353;28;20230;-79
2022/01/10 17:57:59;;;;;;;9.57;6.80;;;6.60;42.50;;;;;;10444875;28;20217;-80
2022/01/10 18:03:03;;;;;;;16.17;14.07;;;6.60;42.50;;;;;;10436702;28;20223;-80
2022/01/10 18:08:08;;;;;;;14.10;12.73;;;6.50;42.70;;;;;;10436370;28;20222;-80
2022/01/10 18:13:12;;;;;;;31.30;18.77;;;6.50;42.70;;;;;;10433373;28;20723;-80
2022/01/10 18:18:17;;;;;;;12.93;8.53;;;6.40;42.70;;;;;;10431667;28;20229;-80
2022/01/10 18:23:21;;;;;;;18.77;15.23;;;6.40;42.90;;;;;;10433166;28;20225;-79
2022/01/10 18:28:25;;;;;;;29.30;17.20;;;6.30;43.00;;;;;;10440932;28;20236;-80
2022/01/10 18:33:28;;;;;;;11.40;8.33;;;6.30;43.00;;;;;;10442144;28;20224;-80
2022/01/10 18:38:32;;;;;;;9.87;8.87;;;6.30;43.00;;;;;;10442249;28;20224;-80
2022/01/10 18:43:37;;;;;;;9.57;8.07;;;6.30;43.10;;;;;;10444852;28;20232;-79
2022/01/10 18:48:40;;;;;;;11.63;10.43;;;6.30;43.20;;;;;;10445944;28;20226;-80
2022/01/10 18:53:45;;;;;;;14.90;12.47;;;6.30;43.20;;;;;;10435177;28;20737;-80
2022/01/10 18:58:48;;;;;;;9.97;8.97;;;6.30;43.40;;;;;;10436550;28;20225;-79
2022/01/10 19:03:51;;;;;;;10.67;8.90;;;6.30;43.40;;;;;;10440964;28;20225;-79
2022/01/10 19:08:56;;;;;;;9.33;8.43;;;6.40;43.40;;;;;;10438578;28;20598;-80
2022/01/10 19:13:59;;;;;;;8.57;7.67;;;6.40;43.30;;;;;;10435339;28;20709;-79
2022/01/10 19:19:03;;;;;;;10.00;9.00;;;6.50;43.30;;;;;;10437218;28;20221;-79
2022/01/10 19:24:08;;;;;;;10.10;8.53;;;6.50;43.10;;;;;;10440137;28;20239;-79
2022/01/10 19:29:12;;;;;;;9.10;8.30;;;6.60;43.20;;;;;;10433451;28;20236;-78
2022/01/10 19:34:15;;;;;;;10.03;9.03;;;6.60;43.20;;;;;;10421493;28;20240;-78
2022/01/10 19:39:21;;;;;;;8.80;7.73;;;6.70;43.20;;;;;;10434371;28;20233;-78
2022/01/10 19:44:25;;;;;;;9.30;8.40;;;6.70;43.00;;;;;;10434223;28;20255;-79
2022/01/10 19:49:30;;;;;;;9.40;8.23;;;6.70;42.90;;;;;;10431667;28;20898;-78
2022/01/10 19:54:38;;;;;;;8.83;7.93;;;6.70;42.70;;;;;;10431400;28;20309;-77
2022/01/10 19:59:50;;;;;;;9.00;8.00;;;6.70;42.90;;;;;;10439651;28;20222;-78
2022/01/10 20:04:53;;;;;;;8.50;7.63;;;6.70;42.80;;;;;;10437652;28;20222;-80
2022/01/10 20:09:59;;;;;;;8.13;7.33;;;6.60;42.70;;;;;;10432229;28;20231;-79
2022/01/10 20:15:02;;;;;;;9.93;7.93;;;6.60;42.90;;;;;;10434806;28;20217;-79
2022/01/10 20:20:07;;;;;;;7.83;7.03;;;6.60;42.80;;;;;;10435295;28;20229;-78
2022/01/10 20:25:12;;;;;;;8.33;7.40;;;6.50;42.90;;;;;;10434796;28;20228;-79
2022/01/10 20:30:16;;;;;;;7.93;7.13;;;6.50;42.90;;;;;;10432829;28;20779;-78
2022/01/10 20:35:20;;;;;;;9.83;7.40;;;6.50;43.00;;;;;;10438183;28;20613;-80
2022/01/10 20:40:25;;;;;;;8.77;7.57;;;6.50;43.10;;;;;;10431817;28;20234;-79
2022/01/10 20:45:30;;;;;;;9.83;7.33;;;6.50;43.20;;;;;;10437234;28;20233;-78
2022/01/10 20:50:36;;;;;;;7.17;6.43;;;6.60;43.20;;;;;;10432501;28;20229;-78
2022/01/10 20:55:40;;;;;;;8.73;7.80;;;6.60;43.20;;;;;;10433277;28;20311;-78
2022/01/10 21:00:47;;;;;;;7.77;6.50;;;6.60;43.10;;;;;;10427023;28;20877;-78
2022/01/10 21:05:55;;;;;;;8.37;7.57;;;6.60;43.00;;;;;;10429890;28;20225;-78
2022/01/10 21:11:00;;;;;;;8.27;7.40;;;6.60;43.20;;;;;;10426434;28;20233;-78
2022/01/10 21:16:03;;;;;;;9.57;8.57;;;6.40;43.00;;;;;;10436400;28;20598;-77
2022/01/10 21:21:07;;;;;;;10.20;9.10;;;6.60;43.10;;;;;;10426337;28;20239;-77
2022/01/10 21:26:12;;;;;;;9.70;8.43;;;6.60;43.00;;;;;;10429750;28;20227;-79
2022/01/10 21:31:16;;;;;;;10.07;8.60;;;6.60;43.10;;;;;;10429741;28;20328;-78
2022/01/10 21:36:19;;;;;;;10.83;8.97;;;6.60;43.10;;;;;;10436478;28;20229;-78
2022/01/10 21:41:25;;;;;;;10.47;8.83;;;6.60;43.00;;;;;;10432663;28;20586;-79
2022/01/10 21:46:28;;;;;;;10.97;9.40;;;6.60;43.10;;;;;;10439483;28;20224;-79
2022/01/10 21:51:33;;;;;;;10.03;9.03;;;6.50;43.00;;;;;;10434386;28;20733;-79
2022/01/10 21:56:37;;;;;;;10.90;9.27;;;6.60;43.20;;;;;;10441593;28;20308;-79
2022/01/10 22:02:00;;;;;;;10.70;9.13;;;6.50;43.10;;;;;;10438634;28;20592;-79
2022/01/10 22:07:04;;;;;;;9.87;8.63;;;6.50;43.20;;;;;;10438733;28;20221;-78
2022/01/10 22:12:10;;;;;;;9.87;8.77;;;6.50;43.10;;;;;;10446220;28;20316;-79
2022/01/10 22:17:13;;;;;;;10.23;8.47;;;6.50;43.30;;;;;;10439849;28;20235;-79
2022/01/10 22:22:16;;;;;;;10.90;8.73;;;6.50;43.30;;;;;;10441468;28;20233;-78
2022/01/10 22:27:21;;;;;;;9.47;8.53;;;6.60;43.40;;;;;;10443335;28;20271;-79
2022/01/10 22:32:25;;;;;;;10.47;9.07;;;6.60;43.50;;;;;;10435667;28;20763;-79
2022/01/10 22:37:28;;;;;;;10.07;9.07;;;6.60;43.40;;;;;;10441449;28;20729;-79
2022/01/10 22:42:32;;;;;;;11.43;9.07;;;6.60;43.30;;;;;;10448441;28;20705;-79
2022/01/10 22:47:36;;;;;;;12.67;8.93;;;6.60;43.40;;;;;;10438752;28;20225;-79
2022/01/10 22:52:39;;;;;;;10.20;8.90;;;6.60;43.30;;;;;;10444663;28;20238;-79
2022/01/10 22:57:45;;;;;;;10.40;9.30;;;6.60;43.40;;;;;;10445919;28;20476;-79
2022/01/10 23:02:48;;;;;;;9.63;8.17;;;6.50;43.30;;;;;;10434780;28;20737;-78
2022/01/10 23:07:52;;;;;;;9.60;8.60;;;6.50;43.20;;;;;;10438736;28;20269;-78
2022/01/10 23:12:56;;;;;;;8.90;7.90;;;6.50;43.00;;;;;;10436011;28;20243;-78
2022/01/10 23:18:00;;;;;;;9.77;8.77;;;6.50;42.80;;;;;;10445658;28;20233;-78
2022/01/10 23:23:04;;;;;;;9.80;8.80;;;6.50;42.90;;;;;;10431554;28;20236;-77
2022/01/10 23:28:09;;;;;;;10.37;9.33;;;6.40;42.80;;;;;;10435362;28;20229;-77
2022/01/10 23:33:12;;;;;;;9.87;8.83;;;6.40;42.80;;;;;;10427565;28;20312;-77
2022/01/10 23:38:15;;;;;;;9.90;8.60;;;6.40;42.80;;;;;;10435122;28;20308;-77
2022/01/10 23:43:21;;;;;;;11.70;8.87;;;6.40;42.70;;;;;;10430910;28;20735;-77
2022/01/10 23:48:25;;;;;;;8.50;7.70;;;6.30;42.50;;;;;;10434934;28;20225;-77
2022/01/10 23:53:28;;;;;;;9.03;8.23;;;6.30;42.50;;;;;;10426699;28;20252;-77
2022/01/10 23:58:34;;;;;;;9.67;8.53;;;6.30;42.50;;;;;;10431907;28;20311;-77
